Terminal Aerodrome Forecast
Issued by NWS

Home | Current Version | Previous Version | Text Only | Print | Product List | Glossary On
Versions: 1 2 3 4 5 6 7 8 9 10 11 12 13
000
FTUS46 KSTO 171100 RRA
TAFRDD
TAF
KRDD 171142Z 1712/1812 32005KT P6SM FEW200
     FM171800 28005KT P6SM SCT200
     FM180300 32007KT P6SM OVC100=

USA.gov is the U.S. government's official web portal to all federal, state and local government web resources and services.